sensor_id;sensor_type;location;lat;lon;timestamp;P1;durP1;ratioP1;P2;durP2;ratioP2
59587;SDS011;45412;54.472;18.464;2024-03-02T00:00:19;44.40;;;23.00;;
59587;SDS011;45412;54.472;18.464;2024-03-02T00:03:27;39.40;;;21.80;;
59587;SDS011;45412;54.472;18.464;2024-03-02T00:06:13;44.70;;;23.30;;
59587;SDS011;45412;54.472;18.464;2024-03-02T00:08:59;41.80;;;21.90;;
59587;SDS011;45412;54.472;18.464;2024-03-02T00:11:46;45.90;;;22.90;;
59587;SDS011;45412;54.472;18.464;2024-03-02T00:14:32;47.90;;;24.70;;
59587;SDS011;45412;54.472;18.464;2024-03-02T00:17:24;41.80;;;20.70;;
59587;SDS011;45412;54.472;18.464;2024-03-02T00:20:15;43.70;;;23.40;;
59587;SDS011;45412;54.472;18.464;2024-03-02T00:23:07;42.50;;;21.90;;
59587;SDS011;45412;54.472;18.464;2024-03-02T00:25:56;48.30;;;24.90;;
59587;SDS011;45412;54.472;18.464;2024-03-02T00:28:44;42.50;;;23.40;;
59587;SDS011;45412;54.472;18.464;2024-03-02T00:31:31;40.30;;;22.00;;
59587;SDS011;45412;54.472;18.464;2024-03-02T00:34:17;45.70;;;24.10;;
59587;SDS011;45412;54.472;18.464;2024-03-02T00:37:04;43.20;;;23.30;;
59587;SDS011;45412;54.472;18.464;2024-03-02T00:39:50;48.00;;;26.60;;
59587;SDS011;45412;54.472;18.464;2024-03-02T00:42:36;43.40;;;21.90;;
59587;SDS011;45412;54.472;18.464;2024-03-02T00:45:22;46.70;;;24.10;;
59587;SDS011;45412;54.472;18.464;2024-03-02T00:48:10;43.20;;;23.20;;
59587;SDS011;45412;54.472;18.464;2024-03-02T00:50:57;44.00;;;22.60;;
59587;SDS011;45412;54.472;18.464;2024-03-02T00:53:43;45.70;;;24.90;;
59587;SDS011;45412;54.472;18.464;2024-03-02T00:56:30;45.80;;;24.10;;
59587;SDS011;45412;54.472;18.464;2024-03-02T00:59:18;43.40;;;22.50;;
59587;SDS011;45412;54.472;18.464;2024-03-02T01:02:04;44.20;;;24.00;;
59587;SDS011;45412;54.472;18.464;2024-03-02T01:04:50;46.40;;;23.30;;
59587;SDS011;45412;54.472;18.464;2024-03-02T01:07:38;49.10;;;24.30;;
59587;SDS011;45412;54.472;18.464;2024-03-02T01:10:24;41.60;;;23.50;;
59587;SDS011;45412;54.472;18.464;2024-03-02T01:13:11;41.60;;;21.80;;
59587;SDS011;45412;54.472;18.464;2024-03-02T01:15:57;40.60;;;23.80;;
59587;SDS011;45412;54.472;18.464;2024-03-02T01:18:44;47.30;;;24.00;;
59587;SDS011;45412;54.472;18.464;2024-03-02T01:21:30;44.40;;;23.50;;
59587;SDS011;45412;54.472;18.464;2024-03-02T01:24:16;45.80;;;21.70;;
59587;SDS011;45412;54.472;18.464;2024-03-02T01:27:03;48.30;;;24.70;;
59587;SDS011;45412;54.472;18.464;2024-03-02T01:29:49;46.60;;;23.00;;
59587;SDS011;45412;54.472;18.464;2024-03-02T01:32:35;46.30;;;23.90;;
59587;SDS011;45412;54.472;18.464;2024-03-02T01:35:21;41.70;;;21.80;;
59587;SDS011;45412;54.472;18.464;2024-03-02T01:38:08;41.80;;;21.20;;
59587;SDS011;45412;54.472;18.464;2024-03-02T01:40:55;46.90;;;24.80;;
59587;SDS011;45412;54.472;18.464;2024-03-02T01:43:42;42.90;;;22.60;;
59587;SDS011;45412;54.472;18.464;2024-03-02T01:46:28;45.30;;;24.70;;
59587;SDS011;45412;54.472;18.464;2024-03-02T01:49:15;46.50;;;24.00;;
59587;SDS011;45412;54.472;18.464;2024-03-02T01:52:01;41.00;;;21.80;;
59587;SDS011;45412;54.472;18.464;2024-03-02T01:54:47;45.50;;;23.90;;
59587;SDS011;45412;54.472;18.464;2024-03-02T01:57:34;48.20;;;22.90;;
59587;SDS011;45412;54.472;18.464;2024-03-02T02:00:20;46.30;;;22.20;;
59587;SDS011;45412;54.472;18.464;2024-03-02T02:03:08;41.40;;;22.30;;
59587;SDS011;45412;54.472;18.464;2024-03-02T02:05:54;43.70;;;23.40;;
59587;SDS011;45412;54.472;18.464;2024-03-02T02:08:40;43.10;;;21.70;;
59587;SDS011;45412;54.472;18.464;2024-03-02T02:11:26;41.80;;;20.00;;
59587;SDS011;45412;54.472;18.464;2024-03-02T02:14:13;41.10;;;21.20;;
59587;SDS011;45412;54.472;18.464;2024-03-02T02:16:59;43.60;;;20.60;;
59587;SDS011;45412;54.472;18.464;2024-03-02T02:19:45;45.50;;;23.20;;
59587;SDS011;45412;54.472;18.464;2024-03-02T02:22:32;40.50;;;21.20;;
59587;SDS011;45412;54.472;18.464;2024-03-02T02:25:18;43.60;;;21.50;;
59587;SDS011;45412;54.472;18.464;2024-03-02T02:28:05;44.50;;;20.80;;
59587;SDS011;45412;54.472;18.464;2024-03-02T02:30:51;41.30;;;21.40;;
59587;SDS011;45412;54.472;18.464;2024-03-02T02:33:39;47.20;;;22.70;;
59587;SDS011;45412;54.472;18.464;2024-03-02T02:36:26;37.40;;;19.40;;
59587;SDS011;45412;54.472;18.464;2024-03-02T02:39:15;48.80;;;22.40;;
59587;SDS011;45412;54.472;18.464;2024-03-02T02:42:03;45.60;;;23.10;;
59587;SDS011;45412;54.472;18.464;2024-03-02T02:44:50;41.30;;;22.00;;
59587;SDS011;45412;54.472;18.464;2024-03-02T02:47:36;37.80;;;19.40;;
59587;SDS011;45412;54.472;18.464;2024-03-02T02:50:22;45.90;;;22.90;;
59587;SDS011;45412;54.472;18.464;2024-03-02T02:53:08;41.10;;;21.10;;
59587;SDS011;45412;54.472;18.464;2024-03-02T02:55:55;43.50;;;22.00;;
59587;SDS011;45412;54.472;18.464;2024-03-02T02:58:41;43.10;;;21.80;;
59587;SDS011;45412;54.472;18.464;2024-03-02T03:01:27;41.70;;;23.90;;
59587;SDS011;45412;54.472;18.464;2024-03-02T03:04:14;43.60;;;22.00;;
59587;SDS011;45412;54.472;18.464;2024-03-02T03:07:00;46.50;;;23.80;;
59587;SDS011;45412;54.472;18.464;2024-03-02T03:09:47;44.60;;;24.10;;
59587;SDS011;45412;54.472;18.464;2024-03-02T03:12:34;43.40;;;22.00;;
59587;SDS011;45412;54.472;18.464;2024-03-02T03:15:21;42.80;;;21.80;;
59587;SDS011;45412;54.472;18.464;2024-03-02T03:18:07;39.20;;;21.50;;
59587;SDS011;45412;54.472;18.464;2024-03-02T03:20:56;44.80;;;23.60;;
59587;SDS011;45412;54.472;18.464;2024-03-02T03:23:42;45.50;;;23.30;;
59587;SDS011;45412;54.472;18.464;2024-03-02T03:26:29;45.50;;;23.60;;
59587;SDS011;45412;54.472;18.464;2024-03-02T03:29:15;48.50;;;24.00;;
59587;SDS011;45412;54.472;18.464;2024-03-02T03:32:01;41.20;;;20.80;;
59587;SDS011;45412;54.472;18.464;2024-03-02T03:34:48;46.60;;;21.90;;
59587;SDS011;45412;54.472;18.464;2024-03-02T03:37:34;44.90;;;23.60;;
59587;SDS011;45412;54.472;18.464;2024-03-02T03:40:21;42.80;;;22.10;;
59587;SDS011;45412;54.472;18.464;2024-03-02T03:43:07;41.50;;;21.00;;
59587;SDS011;45412;54.472;18.464;2024-03-02T03:45:54;44.70;;;22.10;;
59587;SDS011;45412;54.472;18.464;2024-03-02T03:48:40;41.00;;;21.50;;
59587;SDS011;45412;54.472;18.464;2024-03-02T03:51:27;40.40;;;21.60;;
59587;SDS011;45412;54.472;18.464;2024-03-02T03:54:14;40.40;;;23.00;;
59587;SDS011;45412;54.472;18.464;2024-03-02T03:57:00;42.00;;;22.60;;
59587;SDS011;45412;54.472;18.464;2024-03-02T03:59:46;40.00;;;20.70;;
59587;SDS011;45412;54.472;18.464;2024-03-02T04:02:32;43.40;;;22.70;;
59587;SDS011;45412;54.472;18.464;2024-03-02T04:05:18;39.90;;;21.10;;
59587;SDS011;45412;54.472;18.464;2024-03-02T04:08:05;37.80;;;21.50;;
59587;SDS011;45412;54.472;18.464;2024-03-02T04:10:51;43.50;;;20.90;;
59587;SDS011;45412;54.472;18.464;2024-03-02T04:13:37;42.60;;;21.00;;
59587;SDS011;45412;54.472;18.464;2024-03-02T04:16:23;39.70;;;20.90;;
59587;SDS011;45412;54.472;18.464;2024-03-02T04:19:09;39.70;;;20.70;;
59587;SDS011;45412;54.472;18.464;2024-03-02T04:21:55;41.40;;;21.40;;
59587;SDS011;45412;54.472;18.464;2024-03-02T04:24:41;41.40;;;20.30;;
59587;SDS011;45412;54.472;18.464;2024-03-02T04:27:27;46.90;;;21.50;;
59587;SDS011;45412;54.472;18.464;2024-03-02T04:30:13;39.80;;;20.30;;
59587;SDS011;45412;54.472;18.464;2024-03-02T04:33:00;40.10;;;19.70;;
59587;SDS011;45412;54.472;18.464;2024-03-02T04:35:47;38.40;;;20.00;;
59587;SDS011;45412;54.472;18.464;2024-03-02T04:38:33;36.80;;;19.90;;
59587;SDS011;45412;54.472;18.464;2024-03-02T04:41:19;40.00;;;20.30;;
59587;SDS011;45412;54.472;18.464;2024-03-02T04:44:05;45.90;;;21.70;;
59587;SDS011;45412;54.472;18.464;2024-03-02T04:46:53;35.70;;;18.40;;
59587;SDS011;45412;54.472;18.464;2024-03-02T04:49:39;43.80;;;22.50;;
59587;SDS011;45412;54.472;18.464;2024-03-02T04:52:26;43.20;;;22.90;;
59587;SDS011;45412;54.472;18.464;2024-03-02T04:55:12;43.10;;;21.90;;
59587;SDS011;45412;54.472;18.464;2024-03-02T04:58:01;42.90;;;22.20;;
59587;SDS011;45412;54.472;18.464;2024-03-02T05:00:47;44.80;;;21.20;;
59587;SDS011;45412;54.472;18.464;2024-03-02T05:03:33;43.00;;;22.30;;
59587;SDS011;45412;54.472;18.464;2024-03-02T05:06:20;43.30;;;22.00;;
59587;SDS011;45412;54.472;18.464;2024-03-02T05:09:07;44.30;;;23.00;;
59587;SDS011;45412;54.472;18.464;2024-03-02T05:11:54;42.70;;;21.50;;
59587;SDS011;45412;54.472;18.464;2024-03-02T05:14:55;40.20;;;21.60;;
59587;SDS011;45412;54.472;18.464;2024-03-02T05:17:42;43.50;;;22.70;;
59587;SDS011;45412;54.472;18.464;2024-03-02T05:20:32;42.20;;;22.40;;
59587;SDS011;45412;54.472;18.464;2024-03-02T05:23:18;41.70;;;21.20;;
59587;SDS011;45412;54.472;18.464;2024-03-02T05:26:04;45.60;;;23.60;;
59587;SDS011;45412;54.472;18.464;2024-03-02T05:28:50;45.40;;;21.90;;
59587;SDS011;45412;54.472;18.464;2024-03-02T05:31:37;40.80;;;21.20;;
59587;SDS011;45412;54.472;18.464;2024-03-02T05:34:23;44.40;;;22.00;;
59587;SDS011;45412;54.472;18.464;2024-03-02T05:37:09;36.60;;;20.20;;
59587;SDS011;45412;54.472;18.464;2024-03-02T05:39:55;43.00;;;21.00;;
59587;SDS011;45412;54.472;18.464;2024-03-02T05:42:41;38.90;;;21.60;;
59587;SDS011;45412;54.472;18.464;2024-03-02T05:45:27;42.70;;;22.60;;
59587;SDS011;45412;54.472;18.464;2024-03-02T05:48:14;43.60;;;22.40;;
59587;SDS011;45412;54.472;18.464;2024-03-02T05:51:00;45.00;;;23.10;;
59587;SDS011;45412;54.472;18.464;2024-03-02T05:53:46;38.30;;;20.80;;
59587;SDS011;45412;54.472;18.464;2024-03-02T05:56:32;40.20;;;21.70;;
59587;SDS011;45412;54.472;18.464;2024-03-02T05:59:18;43.00;;;22.80;;
59587;SDS011;45412;54.472;18.464;2024-03-02T06:02:05;44.40;;;23.30;;
59587;SDS011;45412;54.472;18.464;2024-03-02T06:04:54;42.90;;;22.30;;
59587;SDS011;45412;54.472;18.464;2024-03-02T06:07:43;38.40;;;20.90;;
59587;SDS011;45412;54.472;18.464;2024-03-02T06:10:29;42.50;;;22.50;;
59587;SDS011;45412;54.472;18.464;2024-03-02T06:13:15;43.80;;;22.20;;
59587;SDS011;45412;54.472;18.464;2024-03-02T06:16:01;45.10;;;23.00;;
59587;SDS011;45412;54.472;18.464;2024-03-02T06:18:48;45.50;;;23.00;;
59587;SDS011;45412;54.472;18.464;2024-03-02T06:21:34;46.40;;;25.10;;
59587;SDS011;45412;54.472;18.464;2024-03-02T06:24:20;44.80;;;22.70;;
59587;SDS011;45412;54.472;18.464;2024-03-02T06:27:07;43.70;;;22.60;;
59587;SDS011;45412;54.472;18.464;2024-03-02T06:29:53;46.30;;;24.40;;
59587;SDS011;45412;54.472;18.464;2024-03-02T06:32:40;48.10;;;24.00;;
59587;SDS011;45412;54.472;18.464;2024-03-02T06:35:26;42.70;;;22.50;;
59587;SDS011;45412;54.472;18.464;2024-03-02T06:38:12;48.20;;;24.10;;
59587;SDS011;45412;54.472;18.464;2024-03-02T06:40:59;50.00;;;23.90;;
59587;SDS011;45412;54.472;18.464;2024-03-02T06:43:45;44.80;;;22.50;;
59587;SDS011;45412;54.472;18.464;2024-03-02T06:46:31;47.70;;;23.30;;
59587;SDS011;45412;54.472;18.464;2024-03-02T06:49:17;45.20;;;23.70;;
59587;SDS011;45412;54.472;18.464;2024-03-02T06:52:03;49.80;;;23.40;;
59587;SDS011;45412;54.472;18.464;2024-03-02T06:54:50;48.10;;;23.90;;
59587;SDS011;45412;54.472;18.464;2024-03-02T06:57:36;44.60;;;22.90;;
59587;SDS011;45412;54.472;18.464;2024-03-02T07:00:22;47.20;;;24.30;;
59587;SDS011;45412;54.472;18.464;2024-03-02T07:03:08;46.50;;;23.50;;
59587;SDS011;45412;54.472;18.464;2024-03-02T07:05:55;51.40;;;26.20;;
59587;SDS011;45412;54.472;18.464;2024-03-02T07:08:41;44.00;;;22.60;;
59587;SDS011;45412;54.472;18.464;2024-03-02T07:11:27;49.60;;;25.70;;
59587;SDS011;45412;54.472;18.464;2024-03-02T07:14:13;47.20;;;23.40;;
59587;SDS011;45412;54.472;18.464;2024-03-02T07:16:59;51.90;;;25.80;;
59587;SDS011;45412;54.472;18.464;2024-03-02T07:19:45;49.10;;;24.90;;
59587;SDS011;45412;54.472;18.464;2024-03-02T07:22:32;49.70;;;24.50;;
59587;SDS011;45412;54.472;18.464;2024-03-02T07:25:19;43.00;;;21.80;;
59587;SDS011;45412;54.472;18.464;2024-03-02T07:28:08;47.10;;;24.40;;
59587;SDS011;45412;54.472;18.464;2024-03-02T07:31:00;42.90;;;24.40;;
59587;SDS011;45412;54.472;18.464;2024-03-02T07:33:47;46.90;;;24.80;;
59587;SDS011;45412;54.472;18.464;2024-03-02T07:36:33;41.10;;;22.50;;
59587;SDS011;45412;54.472;18.464;2024-03-02T07:39:20;46.40;;;25.30;;
59587;SDS011;45412;54.472;18.464;2024-03-02T07:42:06;43.60;;;23.40;;
59587;SDS011;45412;54.472;18.464;2024-03-02T07:44:52;45.50;;;24.80;;
59587;SDS011;45412;54.472;18.464;2024-03-02T07:47:38;43.10;;;23.90;;
59587;SDS011;45412;54.472;18.464;2024-03-02T07:50:25;42.90;;;23.10;;
59587;SDS011;45412;54.472;18.464;2024-03-02T07:53:11;45.00;;;23.90;;
59587;SDS011;45412;54.472;18.464;2024-03-02T07:55:57;41.40;;;23.00;;
59587;SDS011;45412;54.472;18.464;2024-03-02T07:58:48;44.00;;;22.60;;
59587;SDS011;45412;54.472;18.464;2024-03-02T08:01:34;42.60;;;22.70;;
59587;SDS011;45412;54.472;18.464;2024-03-02T08:04:21;46.30;;;24.70;;
59587;SDS011;45412;54.472;18.464;2024-03-02T08:07:07;49.80;;;25.10;;
59587;SDS011;45412;54.472;18.464;2024-03-02T08:09:54;53.60;;;25.90;;
59587;SDS011;45412;54.472;18.464;2024-03-02T08:12:41;52.50;;;26.20;;
59587;SDS011;45412;54.472;18.464;2024-03-02T08:15:27;51.70;;;25.80;;
59587;SDS011;45412;54.472;18.464;2024-03-02T08:18:13;38.80;;;20.70;;
59587;SDS011;45412;54.472;18.464;2024-03-02T08:21:00;56.10;;;28.30;;
59587;SDS011;45412;54.472;18.464;2024-03-02T08:23:46;54.50;;;28.20;;
59587;SDS011;45412;54.472;18.464;2024-03-02T08:26:33;52.20;;;25.00;;
59587;SDS011;45412;54.472;18.464;2024-03-02T08:29:19;51.50;;;26.10;;
59587;SDS011;45412;54.472;18.464;2024-03-02T08:32:05;51.90;;;26.90;;
59587;SDS011;45412;54.472;18.464;2024-03-02T08:34:52;46.10;;;24.60;;
59587;SDS011;45412;54.472;18.464;2024-03-02T08:37:39;50.20;;;24.30;;
59587;SDS011;45412;54.472;18.464;2024-03-02T08:40:28;53.30;;;26.10;;
59587;SDS011;45412;54.472;18.464;2024-03-02T08:43:14;49.10;;;25.50;;
59587;SDS011;45412;54.472;18.464;2024-03-02T08:46:01;50.60;;;25.40;;
59587;SDS011;45412;54.472;18.464;2024-03-02T08:48:47;47.40;;;24.30;;
59587;SDS011;45412;54.472;18.464;2024-03-02T08:51:34;45.40;;;24.30;;
59587;SDS011;45412;54.472;18.464;2024-03-02T08:54:41;46.40;;;24.90;;
59587;SDS011;45412;54.472;18.464;2024-03-02T08:57:28;48.80;;;25.50;;
59587;SDS011;45412;54.472;18.464;2024-03-02T09:00:14;42.50;;;22.80;;
59587;SDS011;45412;54.472;18.464;2024-03-02T09:03:00;46.80;;;24.90;;
59587;SDS011;45412;54.472;18.464;2024-03-02T09:05:47;49.00;;;25.20;;
59587;SDS011;45412;54.472;18.464;2024-03-02T09:08:33;47.80;;;25.00;;
59587;SDS011;45412;54.472;18.464;2024-03-02T09:11:20;43.90;;;23.40;;
59587;SDS011;45412;54.472;18.464;2024-03-02T09:14:07;48.30;;;25.70;;
59587;SDS011;45412;54.472;18.464;2024-03-02T09:16:54;45.20;;;23.00;;
59587;SDS011;45412;54.472;18.464;2024-03-02T09:19:41;52.20;;;25.80;;
59587;SDS011;45412;54.472;18.464;2024-03-02T09:22:27;47.20;;;24.80;;
59587;SDS011;45412;54.472;18.464;2024-03-02T09:25:13;47.50;;;24.90;;
59587;SDS011;45412;54.472;18.464;2024-03-02T09:27:59;48.10;;;24.90;;
59587;SDS011;45412;54.472;18.464;2024-03-02T09:30:46;46.20;;;25.30;;
59587;SDS011;45412;54.472;18.464;2024-03-02T09:33:32;46.80;;;24.50;;
59587;SDS011;45412;54.472;18.464;2024-03-02T09:36:19;48.40;;;24.00;;
59587;SDS011;45412;54.472;18.464;2024-03-02T09:39:08;46.20;;;24.40;;
59587;SDS011;45412;54.472;18.464;2024-03-02T09:42:00;48.70;;;23.60;;
59587;SDS011;45412;54.472;18.464;2024-03-02T09:44:46;46.60;;;24.80;;
59587;SDS011;45412;54.472;18.464;2024-03-02T09:47:33;46.50;;;24.20;;
59587;SDS011;45412;54.472;18.464;2024-03-02T09:50:19;43.10;;;21.50;;
59587;SDS011;45412;54.472;18.464;2024-03-02T09:53:07;49.30;;;26.70;;
59587;SDS011;45412;54.472;18.464;2024-03-02T09:55:54;46.30;;;24.60;;
59587;SDS011;45412;54.472;18.464;2024-03-02T09:58:40;48.20;;;24.40;;
59587;SDS011;45412;54.472;18.464;2024-03-02T10:01:27;40.80;;;21.30;;
59587;SDS011;45412;54.472;18.464;2024-03-02T10:04:14;45.40;;;24.60;;
59587;SDS011;45412;54.472;18.464;2024-03-02T10:09:58;48.10;;;25.30;;
59587;SDS011;45412;54.472;18.464;2024-03-02T10:13:04;42.60;;;23.20;;
59587;SDS011;45412;54.472;18.464;2024-03-02T10:15:53;42.40;;;22.50;;
59587;SDS011;45412;54.472;18.464;2024-03-02T10:18:41;40.60;;;21.40;;
59587;SDS011;45412;54.472;18.464;2024-03-02T10:21:27;45.60;;;24.90;;
59587;SDS011;45412;54.472;18.464;2024-03-02T10:24:13;45.30;;;24.20;;
59587;SDS011;45412;54.472;18.464;2024-03-02T10:27:00;40.10;;;20.20;;
59587;SDS011;45412;54.472;18.464;2024-03-02T10:29:46;49.10;;;24.60;;
59587;SDS011;45412;54.472;18.464;2024-03-02T10:32:33;45.50;;;24.50;;
59587;SDS011;45412;54.472;18.464;2024-03-02T10:35:21;40.80;;;22.30;;
59587;SDS011;45412;54.472;18.464;2024-03-02T10:38:11;45.00;;;24.60;;
59587;SDS011;45412;54.472;18.464;2024-03-02T10:40:57;44.60;;;24.80;;
59587;SDS011;45412;54.472;18.464;2024-03-02T10:43:45;43.50;;;24.40;;
59587;SDS011;45412;54.472;18.464;2024-03-02T10:46:34;39.30;;;22.30;;
59587;SDS011;45412;54.472;18.464;2024-03-02T10:49:25;46.00;;;24.30;;
59587;SDS011;45412;54.472;18.464;2024-03-02T10:52:13;43.00;;;24.30;;
59587;SDS011;45412;54.472;18.464;2024-03-02T10:54:59;42.60;;;23.50;;
59587;SDS011;45412;54.472;18.464;2024-03-02T10:57:52;41.10;;;23.80;;
59587;SDS011;45412;54.472;18.464;2024-03-02T11:00:40;43.70;;;25.10;;
59587;SDS011;45412;54.472;18.464;2024-03-02T11:03:30;41.40;;;24.60;;
59587;SDS011;45412;54.472;18.464;2024-03-02T11:06:21;39.00;;;22.80;;
59587;SDS011;45412;54.472;18.464;2024-03-02T11:09:19;39.90;;;23.50;;
59587;SDS011;45412;54.472;18.464;2024-03-02T11:15:10;38.00;;;23.50;;
59587;SDS011;45412;54.472;18.464;2024-03-02T11:17:59;35.90;;;22.50;;
59587;SDS011;45412;54.472;18.464;2024-03-02T11:20:46;34.20;;;20.90;;
59587;SDS011;45412;54.472;18.464;2024-03-02T11:23:33;37.30;;;22.60;;
59587;SDS011;45412;54.472;18.464;2024-03-02T11:26:21;37.20;;;22.70;;
59587;SDS011;45412;54.472;18.464;2024-03-02T11:29:42;36.20;;;21.10;;
59587;SDS011;45412;54.472;18.464;2024-03-02T11:32:27;39.70;;;23.40;;
59587;SDS011;45412;54.472;18.464;2024-03-02T11:35:13;41.00;;;23.50;;
59587;SDS011;45412;54.472;18.464;2024-03-02T11:38:00;30.90;;;19.40;;
59587;SDS011;45412;54.472;18.464;2024-03-02T11:40:47;36.30;;;20.30;;
59587;SDS011;45412;54.472;18.464;2024-03-02T11:43:33;38.90;;;23.00;;
59587;SDS011;45412;54.472;18.464;2024-03-02T11:46:22;38.40;;;23.60;;
59587;SDS011;45412;54.472;18.464;2024-03-02T11:49:08;35.00;;;21.20;;
59587;SDS011;45412;54.472;18.464;2024-03-02T11:52:00;38.90;;;24.20;;
59587;SDS011;45412;54.472;18.464;2024-03-02T11:54:48;33.80;;;20.40;;
59587;SDS011;45412;54.472;18.464;2024-03-02T11:57:34;39.00;;;23.60;;
59587;SDS011;45412;54.472;18.464;2024-03-02T12:00:21;37.10;;;22.20;;
59587;SDS011;45412;54.472;18.464;2024-03-02T12:03:09;35.20;;;21.20;;
59587;SDS011;45412;54.472;18.464;2024-03-02T12:05:58;34.70;;;20.50;;
59587;SDS011;45412;54.472;18.464;2024-03-02T12:08:45;40.10;;;22.70;;
59587;SDS011;45412;54.472;18.464;2024-03-02T12:11:32;38.00;;;21.30;;
59587;SDS011;45412;54.472;18.464;2024-03-02T12:14:18;36.30;;;21.30;;
59587;SDS011;45412;54.472;18.464;2024-03-02T12:17:05;37.70;;;20.50;;
59587;SDS011;45412;54.472;18.464;2024-03-02T12:19:51;38.80;;;22.50;;
59587;SDS011;45412;54.472;18.464;2024-03-02T12:22:38;38.40;;;22.30;;
59587;SDS011;45412;54.472;18.464;2024-03-02T12:25:25;35.30;;;21.20;;
59587;SDS011;45412;54.472;18.464;2024-03-02T12:28:12;36.70;;;20.90;;
59587;SDS011;45412;54.472;18.464;2024-03-02T12:30:59;38.70;;;21.70;;
59587;SDS011;45412;54.472;18.464;2024-03-02T12:33:46;44.40;;;22.60;;
59587;SDS011;45412;54.472;18.464;2024-03-02T12:36:38;42.30;;;23.30;;
59587;SDS011;45412;54.472;18.464;2024-03-02T12:39:25;40.80;;;23.30;;
59587;SDS011;45412;54.472;18.464;2024-03-02T12:42:11;40.40;;;22.90;;
59587;SDS011;45412;54.472;18.464;2024-03-02T12:44:57;39.20;;;22.10;;
59587;SDS011;45412;54.472;18.464;2024-03-02T12:47:43;38.40;;;21.50;;
59587;SDS011;45412;54.472;18.464;2024-03-02T12:50:30;38.70;;;21.40;;
59587;SDS011;45412;54.472;18.464;2024-03-02T12:53:17;39.70;;;22.40;;
59587;SDS011;45412;54.472;18.464;2024-03-02T12:56:03;36.70;;;21.10;;
59587;SDS011;45412;54.472;18.464;2024-03-02T12:58:54;39.60;;;22.10;;
59587;SDS011;45412;54.472;18.464;2024-03-02T13:01:52;36.50;;;22.50;;
59587;SDS011;45412;54.472;18.464;2024-03-02T13:04:39;38.40;;;22.30;;
59587;SDS011;45412;54.472;18.464;2024-03-02T13:07:27;42.10;;;22.80;;
59587;SDS011;45412;54.472;18.464;2024-03-02T13:10:13;43.20;;;22.90;;
59587;SDS011;45412;54.472;18.464;2024-03-02T13:13:00;40.80;;;23.50;;
59587;SDS011;45412;54.472;18.464;2024-03-02T13:15:46;38.60;;;21.60;;
59587;SDS011;45412;54.472;18.464;2024-03-02T13:18:33;40.70;;;22.60;;
59587;SDS011;45412;54.472;18.464;2024-03-02T13:21:19;33.10;;;19.20;;
59587;SDS011;45412;54.472;18.464;2024-03-02T13:24:06;39.90;;;22.10;;
59587;SDS011;45412;54.472;18.464;2024-03-02T13:26:52;39.60;;;21.90;;
59587;SDS011;45412;54.472;18.464;2024-03-02T13:29:42;41.10;;;22.10;;
59587;SDS011;45412;54.472;18.464;2024-03-02T13:32:28;38.80;;;20.50;;
59587;SDS011;45412;54.472;18.464;2024-03-02T13:35:15;35.50;;;20.40;;
59587;SDS011;45412;54.472;18.464;2024-03-02T13:38:00;35.60;;;20.10;;
59587;SDS011;45412;54.472;18.464;2024-03-02T13:40:48;36.90;;;21.40;;
59587;SDS011;45412;54.472;18.464;2024-03-02T13:43:38;34.00;;;19.50;;
59587;SDS011;45412;54.472;18.464;2024-03-02T13:46:25;39.60;;;22.30;;
59587;SDS011;45412;54.472;18.464;2024-03-02T13:49:11;37.30;;;21.90;;
59587;SDS011;45412;54.472;18.464;2024-03-02T13:51:57;36.90;;;20.50;;
59587;SDS011;45412;54.472;18.464;2024-03-02T13:54:47;37.80;;;21.60;;
59587;SDS011;45412;54.472;18.464;2024-03-02T13:57:34;38.90;;;23.60;;
59587;SDS011;45412;54.472;18.464;2024-03-02T14:00:20;36.30;;;21.10;;
59587;SDS011;45412;54.472;18.464;2024-03-02T14:03:07;40.20;;;21.70;;
59587;SDS011;45412;54.472;18.464;2024-03-02T14:05:54;34.40;;;19.80;;
59587;SDS011;45412;54.472;18.464;2024-03-02T14:08:41;36.00;;;21.00;;
59587;SDS011;45412;54.472;18.464;2024-03-02T14:11:30;44.40;;;24.30;;
59587;SDS011;45412;54.472;18.464;2024-03-02T14:14:17;34.60;;;19.80;;
59587;SDS011;45412;54.472;18.464;2024-03-02T14:17:04;37.90;;;19.00;;
59587;SDS011;45412;54.472;18.464;2024-03-02T14:19:52;36.90;;;20.80;;
59587;SDS011;45412;54.472;18.464;2024-03-02T14:22:39;37.80;;;21.60;;
59587;SDS011;45412;54.472;18.464;2024-03-02T14:25:25;38.60;;;22.30;;
59587;SDS011;45412;54.472;18.464;2024-03-02T14:28:12;38.70;;;21.60;;
59587;SDS011;45412;54.472;18.464;2024-03-02T14:31:18;36.30;;;19.50;;
59587;SDS011;45412;54.472;18.464;2024-03-02T14:34:05;40.00;;;23.70;;
59587;SDS011;45412;54.472;18.464;2024-03-02T14:36:52;39.10;;;21.80;;
59587;SDS011;45412;54.472;18.464;2024-03-02T14:39:39;41.30;;;21.30;;
59587;SDS011;45412;54.472;18.464;2024-03-02T14:42:26;32.20;;;16.70;;
59587;SDS011;45412;54.472;18.464;2024-03-02T14:45:14;38.30;;;20.00;;
59587;SDS011;45412;54.472;18.464;2024-03-02T14:48:01;30.90;;;17.00;;
59587;SDS011;45412;54.472;18.464;2024-03-02T14:50:48;35.50;;;21.10;;
59587;SDS011;45412;54.472;18.464;2024-03-02T14:53:34;35.00;;;17.80;;
59587;SDS011;45412;54.472;18.464;2024-03-02T14:56:21;39.20;;;20.50;;
59587;SDS011;45412;54.472;18.464;2024-03-02T14:59:07;44.50;;;23.60;;
59587;SDS011;45412;54.472;18.464;2024-03-02T15:01:53;41.30;;;23.50;;
59587;SDS011;45412;54.472;18.464;2024-03-02T15:04:39;44.10;;;22.90;;
59587;SDS011;45412;54.472;18.464;2024-03-02T15:07:26;39.20;;;21.40;;
59587;SDS011;45412;54.472;18.464;2024-03-02T15:10:12;41.80;;;22.60;;
59587;SDS011;45412;54.472;18.464;2024-03-02T15:12:58;39.80;;;22.20;;
59587;SDS011;45412;54.472;18.464;2024-03-02T15:15:45;39.80;;;21.00;;
59587;SDS011;45412;54.472;18.464;2024-03-02T15:18:32;41.70;;;21.50;;
59587;SDS011;45412;54.472;18.464;2024-03-02T15:21:18;41.20;;;22.00;;
59587;SDS011;45412;54.472;18.464;2024-03-02T15:24:06;41.60;;;22.30;;
59587;SDS011;45412;54.472;18.464;2024-03-02T15:26:52;41.40;;;21.80;;
59587;SDS011;45412;54.472;18.464;2024-03-02T15:29:40;41.60;;;22.30;;
59587;SDS011;45412;54.472;18.464;2024-03-02T15:32:27;44.10;;;23.80;;
59587;SDS011;45412;54.472;18.464;2024-03-02T15:35:13;42.30;;;21.60;;
59587;SDS011;45412;54.472;18.464;2024-03-02T15:38:00;41.50;;;22.90;;
59587;SDS011;45412;54.472;18.464;2024-03-02T15:40:46;40.90;;;22.90;;
59587;SDS011;45412;54.472;18.464;2024-03-02T15:43:32;42.00;;;23.00;;
59587;SDS011;45412;54.472;18.464;2024-03-02T15:46:21;43.10;;;23.10;;
59587;SDS011;45412;54.472;18.464;2024-03-02T15:49:08;39.80;;;21.50;;
59587;SDS011;45412;54.472;18.464;2024-03-02T15:51:55;40.60;;;22.60;;
59587;SDS011;45412;54.472;18.464;2024-03-02T15:54:40;39.50;;;20.30;;
59587;SDS011;45412;54.472;18.464;2024-03-02T15:57:26;42.70;;;21.60;;
59587;SDS011;45412;54.472;18.464;2024-03-02T16:00:13;43.70;;;24.50;;
59587;SDS011;45412;54.472;18.464;2024-03-02T16:03:00;44.10;;;23.30;;
59587;SDS011;45412;54.472;18.464;2024-03-02T16:05:46;33.90;;;17.60;;
59587;SDS011;45412;54.472;18.464;2024-03-02T16:08:32;39.70;;;20.30;;